Shirland, United Kingdom
Current Conditions -  °F | °C
As of 10:50 PM on Monday 24 Nov 2014 (Local Time) from EGNX Reporting Station
Light Fog Light Fog  
Wind Chill: 32°   Ceiling: Unl
Heat Index: 36°   Visibility: 5mi
Dew Point: 34°   Wind: 5mph
Humidity: 93%   Direction: 190°S
Pressure: 30.33"   Gusts: NA
Location:  53.12°N, 1.4°W
Report Text: EGNX 242250Z 19004KT 160V220 8000 BCFG NSC 02/01 Q1027
Loading
Personal Weather Stations






























Interactive Weather Map New forecast layout! Learn more

10-Day Weather Forecast

Advertisements
Track Severe Weather on mobile